sensor_id;sensor_type;location;lat;lon;timestamp;P1;durP1;ratioP1;P2;durP2;ratioP2
58101;SDS011;52034;51.926;6.320;2022-07-21T00:00:29;16.43;;;12.93;;
58101;SDS011;52034;51.926;6.320;2022-07-21T00:01:30;16.00;;;13.03;;
58101;SDS011;52034;51.926;6.320;2022-07-21T00:02:30;16.33;;;12.90;;
58101;SDS011;52034;51.926;6.320;2022-07-21T00:03:31;15.77;;;12.20;;
58101;SDS011;52034;51.926;6.320;2022-07-21T00:04:31;15.87;;;11.67;;
58101;SDS011;52034;51.926;6.320;2022-07-21T00:05:32;16.93;;;11.37;;
58101;SDS011;52034;51.926;6.320;2022-07-21T00:06:32;14.90;;;10.83;;
58101;SDS011;52034;51.926;6.320;2022-07-21T00:07:32;15.77;;;10.90;;
58101;SDS011;52034;51.926;6.320;2022-07-21T00:08:33;13.80;;;10.50;;
58101;SDS011;52034;51.926;6.320;2022-07-21T00:09:33;13.83;;;10.87;;
58101;SDS011;52034;51.926;6.320;2022-07-21T00:10:35;13.30;;;10.93;;
58101;SDS011;52034;51.926;6.320;2022-07-21T00:11:36;15.43;;;11.13;;
58101;SDS011;52034;51.926;6.320;2022-07-21T00:12:36;13.98;;;11.00;;
58101;SDS011;52034;51.926;6.320;2022-07-21T00:13:37;13.00;;;10.83;;
58101;SDS011;52034;51.926;6.320;2022-07-21T00:14:37;15.23;;;11.33;;
58101;SDS011;52034;51.926;6.320;2022-07-21T00:15:37;15.57;;;11.13;;
58101;SDS011;52034;51.926;6.320;2022-07-21T00:16:38;14.33;;;11.20;;
58101;SDS011;52034;51.926;6.320;2022-07-21T00:17:39;16.42;;;11.63;;
58101;SDS011;52034;51.926;6.320;2022-07-21T00:18:39;15.47;;;11.77;;
58101;SDS011;52034;51.926;6.320;2022-07-21T00:19:39;16.70;;;12.33;;
58101;SDS011;52034;51.926;6.320;2022-07-21T00:20:40;14.17;;;11.80;;
58101;SDS011;52034;51.926;6.320;2022-07-21T00:21:40;15.13;;;12.20;;
58101;SDS011;52034;51.926;6.320;2022-07-21T00:22:41;15.23;;;11.67;;
58101;SDS011;52034;51.926;6.320;2022-07-21T00:23:41;15.13;;;11.40;;
58101;SDS011;52034;51.926;6.320;2022-07-21T00:24:41;15.93;;;11.83;;
58101;SDS011;52034;51.926;6.320;2022-07-21T00:25:42;17.57;;;11.60;;
58101;SDS011;52034;51.926;6.320;2022-07-21T00:26:42;16.27;;;12.33;;
58101;SDS011;52034;51.926;6.320;2022-07-21T00:27:42;14.93;;;12.03;;
58101;SDS011;52034;51.926;6.320;2022-07-21T00:28:43;23.17;;;12.40;;
58101;SDS011;52034;51.926;6.320;2022-07-21T00:29:43;14.23;;;11.70;;
58101;SDS011;52034;51.926;6.320;2022-07-21T00:30:44;20.47;;;12.70;;
58101;SDS011;52034;51.926;6.320;2022-07-21T00:31:44;15.27;;;12.75;;
58101;SDS011;52034;51.926;6.320;2022-07-21T00:32:45;18.00;;;13.03;;
58101;SDS011;52034;51.926;6.320;2022-07-21T00:33:45;17.50;;;12.87;;
58101;SDS011;52034;51.926;6.320;2022-07-21T00:34:45;15.00;;;13.10;;
58101;SDS011;52034;51.926;6.320;2022-07-21T00:35:46;18.80;;;12.60;;
58101;SDS011;52034;51.926;6.320;2022-07-21T00:36:46;16.70;;;12.67;;
58101;SDS011;52034;51.926;6.320;2022-07-21T00:37:47;17.47;;;12.87;;
58101;SDS011;52034;51.926;6.320;2022-07-21T00:38:47;17.50;;;13.23;;
58101;SDS011;52034;51.926;6.320;2022-07-21T00:39:48;17.27;;;12.60;;
58101;SDS011;52034;51.926;6.320;2022-07-21T00:40:48;17.50;;;13.03;;
58101;SDS011;52034;51.926;6.320;2022-07-21T00:41:48;17.97;;;13.43;;
58101;SDS011;52034;51.926;6.320;2022-07-21T00:42:49;16.47;;;13.37;;
58101;SDS011;52034;51.926;6.320;2022-07-21T00:43:49;16.17;;;13.43;;
58101;SDS011;52034;51.926;6.320;2022-07-21T00:44:49;17.10;;;11.87;;
58101;SDS011;52034;51.926;6.320;2022-07-21T00:45:54;17.23;;;13.27;;
58101;SDS011;52034;51.926;6.320;2022-07-21T00:46:55;17.13;;;11.02;;
58101;SDS011;52034;51.926;6.320;2022-07-21T00:47:57;15.57;;;12.68;;
58101;SDS011;52034;51.926;6.320;2022-07-21T00:48:57;16.70;;;12.40;;
58101;SDS011;52034;51.926;6.320;2022-07-21T00:49:58;17.27;;;13.07;;
58101;SDS011;52034;51.926;6.320;2022-07-21T00:50:59;13.90;;;12.43;;
58101;SDS011;52034;51.926;6.320;2022-07-21T00:52:00;15.37;;;12.43;;
58101;SDS011;52034;51.926;6.320;2022-07-21T00:53:00;20.07;;;12.67;;
58101;SDS011;52034;51.926;6.320;2022-07-21T00:54:00;15.57;;;12.30;;
58101;SDS011;52034;51.926;6.320;2022-07-21T00:55:01;15.03;;;11.93;;
58101;SDS011;52034;51.926;6.320;2022-07-21T00:56:02;15.82;;;12.02;;
58101;SDS011;52034;51.926;6.320;2022-07-21T00:57:02;16.10;;;11.80;;
58101;SDS011;52034;51.926;6.320;2022-07-21T00:58:03;16.07;;;11.47;;
58101;SDS011;52034;51.926;6.320;2022-07-21T00:59:03;16.03;;;11.83;;
58101;SDS011;52034;51.926;6.320;2022-07-21T01:00:08;15.10;;;11.73;;
58101;SDS011;52034;51.926;6.320;2022-07-21T01:01:13;17.65;;;11.88;;
58101;SDS011;52034;51.926;6.320;2022-07-21T01:02:14;13.97;;;12.10;;
58101;SDS011;52034;51.926;6.320;2022-07-21T01:03:14;15.65;;;12.43;;
58101;SDS011;52034;51.926;6.320;2022-07-21T01:04:15;14.70;;;12.33;;
58101;SDS011;52034;51.926;6.320;2022-07-21T01:05:15;15.47;;;12.20;;
58101;SDS011;52034;51.926;6.320;2022-07-21T01:06:17;15.30;;;12.57;;
58101;SDS011;52034;51.926;6.320;2022-07-21T01:07:17;15.90;;;12.37;;
58101;SDS011;52034;51.926;6.320;2022-07-21T01:08:19;16.30;;;13.00;;
58101;SDS011;52034;51.926;6.320;2022-07-21T01:09:20;15.00;;;11.60;;
58101;SDS011;52034;51.926;6.320;2022-07-21T01:10:22;14.85;;;12.20;;
58101;SDS011;52034;51.926;6.320;2022-07-21T01:11:24;18.35;;;12.55;;
58101;SDS011;52034;51.926;6.320;2022-07-21T01:12:24;17.25;;;13.20;;
58101;SDS011;52034;51.926;6.320;2022-07-21T01:13:25;16.50;;;12.80;;
58101;SDS011;52034;51.926;6.320;2022-07-21T01:14:25;18.30;;;12.77;;
58101;SDS011;52034;51.926;6.320;2022-07-21T01:15:26;16.40;;;12.17;;
58101;SDS011;52034;51.926;6.320;2022-07-21T01:16:26;16.93;;;12.87;;
58101;SDS011;52034;51.926;6.320;2022-07-21T01:17:27;15.73;;;12.27;;
58101;SDS011;52034;51.926;6.320;2022-07-21T01:18:27;14.20;;;11.93;;
58101;SDS011;52034;51.926;6.320;2022-07-21T01:19:28;15.10;;;12.03;;
58101;SDS011;52034;51.926;6.320;2022-07-21T01:20:31;14.00;;;12.50;;
58101;SDS011;52034;51.926;6.320;2022-07-21T01:21:35;15.60;;;12.05;;
58101;SDS011;52034;51.926;6.320;2022-07-21T01:22:37;14.75;;;12.50;;
58101;SDS011;52034;51.926;6.320;2022-07-21T01:23:39;15.30;;;11.75;;
58101;SDS011;52034;51.926;6.320;2022-07-21T01:24:40;13.87;;;12.00;;
58101;SDS011;52034;51.926;6.320;2022-07-21T01:25:40;17.00;;;11.73;;
58101;SDS011;52034;51.926;6.320;2022-07-21T01:26:48;13.18;;;11.43;;
58101;SDS011;52034;51.926;6.320;2022-07-21T01:27:50;13.73;;;11.68;;
58101;SDS011;52034;51.926;6.320;2022-07-21T01:28:51;14.53;;;11.50;;
58101;SDS011;52034;51.926;6.320;2022-07-21T01:29:52;13.82;;;11.18;;
58101;SDS011;52034;51.926;6.320;2022-07-21T01:30:53;12.23;;;10.82;;
58101;SDS011;52034;51.926;6.320;2022-07-21T01:31:54;15.83;;;12.07;;
58101;SDS011;52034;51.926;6.320;2022-07-21T01:32:54;13.00;;;10.77;;
58101;SDS011;52034;51.926;6.320;2022-07-21T01:33:54;16.30;;;10.77;;
58101;SDS011;52034;51.926;6.320;2022-07-21T01:34:55;16.83;;;10.70;;
58101;SDS011;52034;51.926;6.320;2022-07-21T01:35:55;13.73;;;11.50;;
58101;SDS011;52034;51.926;6.320;2022-07-21T01:36:55;14.60;;;10.80;;
58101;SDS011;52034;51.926;6.320;2022-07-21T01:37:56;15.60;;;11.27;;
58101;SDS011;52034;51.926;6.320;2022-07-21T01:38:58;13.73;;;10.88;;
58101;SDS011;52034;51.926;6.320;2022-07-21T01:40:17;11.65;;;10.00;;
58101;SDS011;52034;51.926;6.320;2022-07-21T01:41:36;14.50;;;10.48;;
58101;SDS011;52034;51.926;6.320;2022-07-21T01:42:37;14.77;;;10.60;;
58101;SDS011;52034;51.926;6.320;2022-07-21T01:43:37;15.23;;;10.63;;
58101;SDS011;52034;51.926;6.320;2022-07-21T01:44:38;14.27;;;10.07;;
58101;SDS011;52034;51.926;6.320;2022-07-21T01:45:39;12.77;;;10.83;;
58101;SDS011;52034;51.926;6.320;2022-07-21T01:46:42;11.55;;;10.35;;
58101;SDS011;52034;51.926;6.320;2022-07-21T01:47:46;13.13;;;10.63;;
58101;SDS011;52034;51.926;6.320;2022-07-21T01:48:46;12.93;;;11.33;;
58101;SDS011;52034;51.926;6.320;2022-07-21T01:49:47;13.40;;;10.80;;
58101;SDS011;52034;51.926;6.320;2022-07-21T01:50:47;14.63;;;11.37;;
58101;SDS011;52034;51.926;6.320;2022-07-21T01:51:48;13.00;;;11.63;;
58101;SDS011;52034;51.926;6.320;2022-07-21T01:52:48;15.82;;;12.15;;
58101;SDS011;52034;51.926;6.320;2022-07-21T01:53:49;14.47;;;12.50;;
58101;SDS011;52034;51.926;6.320;2022-07-21T01:54:49;16.60;;;13.07;;
58101;SDS011;52034;51.926;6.320;2022-07-21T01:55:49;18.10;;;13.03;;
58101;SDS011;52034;51.926;6.320;2022-07-21T01:56:50;16.47;;;14.17;;
58101;SDS011;52034;51.926;6.320;2022-07-21T01:57:51;15.13;;;12.80;;
58101;SDS011;52034;51.926;6.320;2022-07-21T01:58:53;17.42;;;13.45;;
58101;SDS011;52034;51.926;6.320;2022-07-21T01:59:54;18.33;;;14.35;;
58101;SDS011;52034;51.926;6.320;2022-07-21T02:00:55;16.40;;;13.20;;
58101;SDS011;52034;51.926;6.320;2022-07-21T02:01:55;16.80;;;13.47;;
58101;SDS011;52034;51.926;6.320;2022-07-21T02:02:55;14.63;;;13.03;;
58101;SDS011;52034;51.926;6.320;2022-07-21T02:03:57;17.33;;;13.30;;
58101;SDS011;52034;51.926;6.320;2022-07-21T02:04:58;16.52;;;12.23;;
58101;SDS011;52034;51.926;6.320;2022-07-21T02:06:05;14.03;;;12.53;;
58101;SDS011;52034;51.926;6.320;2022-07-21T02:07:16;14.18;;;12.18;;
58101;SDS011;52034;51.926;6.320;2022-07-21T02:08:17;14.15;;;11.57;;
58101;SDS011;52034;51.926;6.320;2022-07-21T02:09:17;15.07;;;11.57;;
58101;SDS011;52034;51.926;6.320;2022-07-21T02:10:17;18.03;;;12.50;;
58101;SDS011;52034;51.926;6.320;2022-07-21T02:11:18;14.07;;;12.13;;
58101;SDS011;52034;51.926;6.320;2022-07-21T02:12:18;16.97;;;12.67;;
58101;SDS011;52034;51.926;6.320;2022-07-21T02:13:19;17.53;;;12.57;;
58101;SDS011;52034;51.926;6.320;2022-07-21T02:14:19;16.30;;;12.00;;
58101;SDS011;52034;51.926;6.320;2022-07-21T02:15:19;14.67;;;12.23;;
58101;SDS011;52034;51.926;6.320;2022-07-21T02:16:20;14.47;;;11.83;;
58101;SDS011;52034;51.926;6.320;2022-07-21T02:17:20;15.93;;;12.77;;
58101;SDS011;52034;51.926;6.320;2022-07-21T02:18:21;15.60;;;12.73;;
58101;SDS011;52034;51.926;6.320;2022-07-21T02:19:21;14.97;;;13.17;;
58101;SDS011;52034;51.926;6.320;2022-07-21T02:20:21;14.93;;;11.97;;
58101;SDS011;52034;51.926;6.320;2022-07-21T02:21:22;15.67;;;13.13;;
58101;SDS011;52034;51.926;6.320;2022-07-21T02:22:22;14.63;;;12.47;;
58101;SDS011;52034;51.926;6.320;2022-07-21T02:23:23;16.30;;;12.87;;
58101;SDS011;52034;51.926;6.320;2022-07-21T02:24:23;15.95;;;12.65;;
58101;SDS011;52034;51.926;6.320;2022-07-21T02:25:24;17.13;;;13.17;;
58101;SDS011;52034;51.926;6.320;2022-07-21T02:26:24;17.47;;;13.50;;
58101;SDS011;52034;51.926;6.320;2022-07-21T02:27:24;18.23;;;13.03;;
58101;SDS011;52034;51.926;6.320;2022-07-21T02:28:25;17.03;;;12.70;;
58101;SDS011;52034;51.926;6.320;2022-07-21T02:30:27;15.40;;;12.63;;
58101;SDS011;52034;51.926;6.320;2022-07-21T02:31:27;15.70;;;12.80;;
58101;SDS011;52034;51.926;6.320;2022-07-21T02:32:27;16.90;;;12.57;;
58101;SDS011;52034;51.926;6.320;2022-07-21T02:33:28;15.33;;;12.67;;
58101;SDS011;52034;51.926;6.320;2022-07-21T02:34:28;16.70;;;12.60;;
58101;SDS011;52034;51.926;6.320;2022-07-21T02:35:28;15.67;;;12.07;;
58101;SDS011;52034;51.926;6.320;2022-07-21T02:36:29;15.37;;;12.70;;
58101;SDS011;52034;51.926;6.320;2022-07-21T02:37:29;17.63;;;13.40;;
58101;SDS011;52034;51.926;6.320;2022-07-21T02:38:30;16.87;;;12.07;;
58101;SDS011;52034;51.926;6.320;2022-07-21T02:39:30;15.50;;;12.27;;
58101;SDS011;52034;51.926;6.320;2022-07-21T02:40:30;14.67;;;12.23;;
58101;SDS011;52034;51.926;6.320;2022-07-21T02:41:31;21.13;;;12.83;;
58101;SDS011;52034;51.926;6.320;2022-07-21T02:42:31;15.30;;;12.07;;
58101;SDS011;52034;51.926;6.320;2022-07-21T02:43:31;14.20;;;11.50;;
58101;SDS011;52034;51.926;6.320;2022-07-21T02:44:32;14.00;;;11.87;;
58101;SDS011;52034;51.926;6.320;2022-07-21T02:45:32;15.77;;;12.60;;
58101;SDS011;52034;51.926;6.320;2022-07-21T02:46:33;14.10;;;12.32;;
58101;SDS011;52034;51.926;6.320;2022-07-21T02:47:46;15.83;;;13.10;;
58101;SDS011;52034;51.926;6.320;2022-07-21T02:48:49;15.95;;;12.45;;
58101;SDS011;52034;51.926;6.320;2022-07-21T02:49:50;15.00;;;11.80;;
58101;SDS011;52034;51.926;6.320;2022-07-21T02:50:50;16.33;;;12.30;;
58101;SDS011;52034;51.926;6.320;2022-07-21T02:51:50;15.97;;;12.50;;
58101;SDS011;52034;51.926;6.320;2022-07-21T02:52:53;14.83;;;11.53;;
58101;SDS011;52034;51.926;6.320;2022-07-21T02:53:55;14.48;;;11.52;;
58101;SDS011;52034;51.926;6.320;2022-07-21T02:54:55;13.30;;;11.57;;
58101;SDS011;52034;51.926;6.320;2022-07-21T02:55:56;16.83;;;11.30;;
58101;SDS011;52034;51.926;6.320;2022-07-21T02:56:56;13.43;;;11.13;;
58101;SDS011;52034;51.926;6.320;2022-07-21T02:58:03;15.97;;;11.47;;
58101;SDS011;52034;51.926;6.320;2022-07-21T02:59:12;14.27;;;12.23;;
58101;SDS011;52034;51.926;6.320;2022-07-21T03:00:13;14.27;;;10.90;;
58101;SDS011;52034;51.926;6.320;2022-07-21T03:01:13;13.43;;;10.23;;
58101;SDS011;52034;51.926;6.320;2022-07-21T03:02:14;16.63;;;12.33;;
58101;SDS011;52034;51.926;6.320;2022-07-21T03:03:14;15.60;;;11.60;;
58101;SDS011;52034;51.926;6.320;2022-07-21T03:04:15;14.90;;;11.23;;
58101;SDS011;52034;51.926;6.320;2022-07-21T03:05:15;14.73;;;12.00;;
58101;SDS011;52034;51.926;6.320;2022-07-21T03:06:16;16.67;;;12.17;;
58101;SDS011;52034;51.926;6.320;2022-07-21T03:07:16;15.47;;;11.57;;
58101;SDS011;52034;51.926;6.320;2022-07-21T03:08:17;13.43;;;11.43;;
58101;SDS011;52034;51.926;6.320;2022-07-21T03:09:17;16.95;;;12.52;;
58101;SDS011;52034;51.926;6.320;2022-07-21T03:10:18;15.33;;;11.40;;
58101;SDS011;52034;51.926;6.320;2022-07-21T03:11:18;15.03;;;11.70;;
58101;SDS011;52034;51.926;6.320;2022-07-21T03:12:18;15.57;;;11.83;;
58101;SDS011;52034;51.926;6.320;2022-07-21T03:13:19;15.63;;;12.00;;
58101;SDS011;52034;51.926;6.320;2022-07-21T03:14:19;12.13;;;10.47;;
58101;SDS011;52034;51.926;6.320;2022-07-21T03:15:20;15.73;;;11.73;;
58101;SDS011;52034;51.926;6.320;2022-07-21T03:16:20;14.70;;;11.23;;
58101;SDS011;52034;51.926;6.320;2022-07-21T03:17:21;17.13;;;11.33;;
58101;SDS011;52034;51.926;6.320;2022-07-21T03:18:22;14.45;;;11.48;;
58101;SDS011;52034;51.926;6.320;2022-07-21T03:19:22;16.33;;;11.50;;
58101;SDS011;52034;51.926;6.320;2022-07-21T03:20:23;14.07;;;11.87;;
58101;SDS011;52034;51.926;6.320;2022-07-21T03:21:26;16.15;;;11.95;;
58101;SDS011;52034;51.926;6.320;2022-07-21T03:22:27;15.33;;;12.20;;
58101;SDS011;52034;51.926;6.320;2022-07-21T03:23:27;16.97;;;11.53;;
58101;SDS011;52034;51.926;6.320;2022-07-21T03:24:27;11.93;;;9.90;;
58101;SDS011;52034;51.926;6.320;2022-07-21T03:26:29;13.77;;;11.27;;
58101;SDS011;52034;51.926;6.320;2022-07-21T03:27:31;14.27;;;10.50;;
58101;SDS011;52034;51.926;6.320;2022-07-21T03:28:35;14.65;;;11.65;;
58101;SDS011;52034;51.926;6.320;2022-07-21T03:29:36;13.73;;;11.27;;
58101;SDS011;52034;51.926;6.320;2022-07-21T03:30:36;15.67;;;12.27;;
58101;SDS011;52034;51.926;6.320;2022-07-21T03:31:37;16.03;;;10.97;;
58101;SDS011;52034;51.926;6.320;2022-07-21T03:32:37;14.87;;;11.57;;
58101;SDS011;52034;51.926;6.320;2022-07-21T03:33:37;17.07;;;12.13;;
58101;SDS011;52034;51.926;6.320;2022-07-21T03:34:38;16.10;;;11.70;;
58101;SDS011;52034;51.926;6.320;2022-07-21T03:35:38;14.83;;;11.30;;
58101;SDS011;52034;51.926;6.320;2022-07-21T03:36:38;15.00;;;11.77;;
58101;SDS011;52034;51.926;6.320;2022-07-21T03:37:39;18.33;;;12.50;;
58101;SDS011;52034;51.926;6.320;2022-07-21T03:38:44;16.38;;;12.38;;
58101;SDS011;52034;51.926;6.320;2022-07-21T03:39:44;16.90;;;13.43;;
58101;SDS011;52034;51.926;6.320;2022-07-21T03:40:44;15.27;;;12.57;;
58101;SDS011;52034;51.926;6.320;2022-07-21T03:41:44;14.97;;;11.77;;
58101;SDS011;52034;51.926;6.320;2022-07-21T03:42:45;16.63;;;12.63;;
58101;SDS011;52034;51.926;6.320;2022-07-21T03:43:45;16.60;;;11.67;;
58101;SDS011;52034;51.926;6.320;2022-07-21T03:44:45;16.73;;;12.20;;
58101;SDS011;52034;51.926;6.320;2022-07-21T03:45:46;17.37;;;12.30;;
58101;SDS011;52034;51.926;6.320;2022-07-21T03:46:46;13.10;;;11.43;;
58101;SDS011;52034;51.926;6.320;2022-07-21T03:47:46;14.10;;;11.40;;
58101;SDS011;52034;51.926;6.320;2022-07-21T03:48:47;16.37;;;11.17;;
58101;SDS011;52034;51.926;6.320;2022-07-21T03:49:47;14.70;;;11.00;;
58101;SDS011;52034;51.926;6.320;2022-07-21T03:50:47;15.43;;;11.93;;
58101;SDS011;52034;51.926;6.320;2022-07-21T03:51:48;16.43;;;12.07;;
58101;SDS011;52034;51.926;6.320;2022-07-21T03:52:48;13.50;;;10.77;;
58101;SDS011;52034;51.926;6.320;2022-07-21T03:53:48;14.90;;;11.73;;
58101;SDS011;52034;51.926;6.320;2022-07-21T03:54:49;19.53;;;11.93;;
58101;SDS011;52034;51.926;6.320;2022-07-21T03:55:49;13.83;;;10.87;;
58101;SDS011;52034;51.926;6.320;2022-07-21T03:56:50;16.47;;;11.63;;
58101;SDS011;52034;51.926;6.320;2022-07-21T03:57:54;15.67;;;11.20;;
58101;SDS011;52034;51.926;6.320;2022-07-21T03:58:56;13.40;;;10.45;;
58101;SDS011;52034;51.926;6.320;2022-07-21T03:59:56;14.20;;;11.23;;
58101;SDS011;52034;51.926;6.320;2022-07-21T04:00:56;13.60;;;10.73;;
58101;SDS011;52034;51.926;6.320;2022-07-21T04:01:57;18.77;;;10.77;;
58101;SDS011;52034;51.926;6.320;2022-07-21T04:02:58;13.23;;;10.73;;
58101;SDS011;52034;51.926;6.320;2022-07-21T04:03:58;16.20;;;10.05;;
58101;SDS011;52034;51.926;6.320;2022-07-21T04:04:59;14.63;;;11.07;;
58101;SDS011;52034;51.926;6.320;2022-07-21T04:05:59;13.73;;;9.70;;
58101;SDS011;52034;51.926;6.320;2022-07-21T04:06:59;16.63;;;10.97;;
58101;SDS011;52034;51.926;6.320;2022-07-21T04:08:00;15.07;;;10.00;;
58101;SDS011;52034;51.926;6.320;2022-07-21T04:09:01;14.98;;;10.82;;
58101;SDS011;52034;51.926;6.320;2022-07-21T04:10:01;15.83;;;11.03;;
58101;SDS011;52034;51.926;6.320;2022-07-21T04:11:02;13.68;;;9.82;;
58101;SDS011;52034;51.926;6.320;2022-07-21T04:12:02;16.07;;;10.83;;
58101;SDS011;52034;51.926;6.320;2022-07-21T04:13:04;13.90;;;10.73;;
58101;SDS011;52034;51.926;6.320;2022-07-21T04:14:05;13.27;;;10.43;;
58101;SDS011;52034;51.926;6.320;2022-07-21T04:15:06;14.07;;;10.33;;
58101;SDS011;52034;51.926;6.320;2022-07-21T04:16:07;14.43;;;10.38;;
58101;SDS011;52034;51.926;6.320;2022-07-21T04:17:07;15.40;;;11.20;;
58101;SDS011;52034;51.926;6.320;2022-07-21T04:18:08;14.57;;;11.00;;
58101;SDS011;52034;51.926;6.320;2022-07-21T04:19:09;16.60;;;11.15;;
58101;SDS011;52034;51.926;6.320;2022-07-21T04:20:10;14.80;;;10.63;;
58101;SDS011;52034;51.926;6.320;2022-07-21T04:21:12;12.18;;;10.73;;
58101;SDS011;52034;51.926;6.320;2022-07-21T04:22:12;15.63;;;11.37;;
58101;SDS011;52034;51.926;6.320;2022-07-21T04:23:12;18.97;;;11.33;;
58101;SDS011;52034;51.926;6.320;2022-07-21T04:24:13;16.97;;;11.67;;
58101;SDS011;52034;51.926;6.320;2022-07-21T04:25:13;15.47;;;12.17;;
58101;SDS011;52034;51.926;6.320;2022-07-21T04:26:14;14.55;;;11.43;;
58101;SDS011;52034;51.926;6.320;2022-07-21T04:27:15;15.47;;;11.90;;
58101;SDS011;52034;51.926;6.320;2022-07-21T04:28:15;16.07;;;11.83;;
58101;SDS011;52034;51.926;6.320;2022-07-21T04:29:15;13.53;;;11.27;;
58101;SDS011;52034;51.926;6.320;2022-07-21T04:30:18;17.03;;;11.50;;
58101;SDS011;52034;51.926;6.320;2022-07-21T04:31:21;15.75;;;11.88;;
58101;SDS011;52034;51.926;6.320;2022-07-21T04:32:22;15.27;;;12.70;;
58101;SDS011;52034;51.926;6.320;2022-07-21T04:33:22;15.20;;;11.63;;
58101;SDS011;52034;51.926;6.320;2022-07-21T04:34:23;18.27;;;11.47;;
58101;SDS011;52034;51.926;6.320;2022-07-21T04:35:23;15.20;;;11.43;;
58101;SDS011;52034;51.926;6.320;2022-07-21T04:36:24;15.17;;;10.43;;
58101;SDS011;52034;51.926;6.320;2022-07-21T04:37:24;15.60;;;11.80;;
58101;SDS011;52034;51.926;6.320;2022-07-21T04:38:24;12.93;;;10.70;;
58101;SDS011;52034;51.926;6.320;2022-07-21T04:39:25;12.50;;;10.03;;
58101;SDS011;52034;51.926;6.320;2022-07-21T04:40:25;13.47;;;11.77;;
58101;SDS011;52034;51.926;6.320;2022-07-21T04:41:25;15.70;;;11.40;;
58101;SDS011;52034;51.926;6.320;2022-07-21T04:42:26;17.53;;;12.47;;
58101;SDS011;52034;51.926;6.320;2022-07-21T04:43:26;14.43;;;11.73;;
58101;SDS011;52034;51.926;6.320;2022-07-21T04:44:26;15.60;;;11.37;;
58101;SDS011;52034;51.926;6.320;2022-07-21T04:45:27;13.97;;;10.80;;
58101;SDS011;52034;51.926;6.320;2022-07-21T04:46:27;14.30;;;10.93;;
58101;SDS011;52034;51.926;6.320;2022-07-21T04:47:27;14.50;;;11.53;;
58101;SDS011;52034;51.926;6.320;2022-07-21T04:48:28;15.03;;;12.17;;
58101;SDS011;52034;51.926;6.320;2022-07-21T04:49:28;14.37;;;10.77;;
58101;SDS011;52034;51.926;6.320;2022-07-21T04:50:28;16.57;;;11.63;;
58101;SDS011;52034;51.926;6.320;2022-07-21T04:51:29;15.20;;;12.07;;
58101;SDS011;52034;51.926;6.320;2022-07-21T04:52:30;13.97;;;11.63;;
58101;SDS011;52034;51.926;6.320;2022-07-21T04:53:30;16.47;;;11.93;;
58101;SDS011;52034;51.926;6.320;2022-07-21T04:54:30;15.53;;;11.13;;
58101;SDS011;52034;51.926;6.320;2022-07-21T04:55:31;17.17;;;12.17;;
58101;SDS011;52034;51.926;6.320;2022-07-21T04:56:31;13.10;;;10.77;;
58101;SDS011;52034;51.926;6.320;2022-07-21T04:57:36;17.42;;;11.90;;
58101;SDS011;52034;51.926;6.320;2022-07-21T04:58:39;15.40;;;11.98;;
58101;SDS011;52034;51.926;6.320;2022-07-21T04:59:39;16.03;;;12.53;;
58101;SDS011;52034;51.926;6.320;2022-07-21T05:00:40;16.37;;;12.13;;
58101;SDS011;52034;51.926;6.320;2022-07-21T05:01:40;16.20;;;11.93;;
58101;SDS011;52034;51.926;6.320;2022-07-21T05:02:41;14.07;;;12.57;;
58101;SDS011;52034;51.926;6.320;2022-07-21T05:03:41;17.40;;;12.60;;
58101;SDS011;52034;51.926;6.320;2022-07-21T05:04:41;17.73;;;13.13;;
58101;SDS011;52034;51.926;6.320;2022-07-21T05:05:42;16.07;;;12.10;;
58101;SDS011;52034;51.926;6.320;2022-07-21T05:06:42;13.93;;;12.13;;
58101;SDS011;52034;51.926;6.320;2022-07-21T05:07:42;17.43;;;12.73;;
58101;SDS011;52034;51.926;6.320;2022-07-21T05:08:43;15.10;;;11.87;;
58101;SDS011;52034;51.926;6.320;2022-07-21T05:09:43;16.83;;;12.50;;
58101;SDS011;52034;51.926;6.320;2022-07-21T05:10:44;15.57;;;11.93;;
58101;SDS011;52034;51.926;6.320;2022-07-21T05:11:44;17.47;;;12.60;;
58101;SDS011;52034;51.926;6.320;2022-07-21T05:12:44;15.87;;;11.70;;
58101;SDS011;52034;51.926;6.320;2022-07-21T05:13:45;15.80;;;12.10;;
58101;SDS011;52034;51.926;6.320;2022-07-21T05:14:45;17.73;;;12.80;;
58101;SDS011;52034;51.926;6.320;2022-07-21T05:15:46;17.10;;;12.73;;
58101;SDS011;52034;51.926;6.320;2022-07-21T05:16:46;15.57;;;11.00;;
58101;SDS011;52034;51.926;6.320;2022-07-21T05:17:46;17.73;;;11.83;;
58101;SDS011;52034;51.926;6.320;2022-07-21T05:18:46;17.43;;;13.00;;
58101;SDS011;52034;51.926;6.320;2022-07-21T05:19:47;16.00;;;12.87;;
58101;SDS011;52034;51.926;6.320;2022-07-21T05:20:50;16.40;;;11.52;;
58101;SDS011;52034;51.926;6.320;2022-07-21T05:21:50;14.83;;;10.93;;
58101;SDS011;52034;51.926;6.320;2022-07-21T05:22:50;17.27;;;13.03;;
58101;SDS011;52034;51.926;6.320;2022-07-21T05:23:50;16.77;;;12.43;;
58101;SDS011;52034;51.926;6.320;2022-07-21T05:24:51;15.57;;;11.53;;
58101;SDS011;52034;51.926;6.320;2022-07-21T05:25:51;15.90;;;12.30;;
58101;SDS011;52034;51.926;6.320;2022-07-21T05:26:52;14.77;;;12.17;;
58101;SDS011;52034;51.926;6.320;2022-07-21T05:27:52;17.23;;;13.60;;
58101;SDS011;52034;51.926;6.320;2022-07-21T05:28:52;14.17;;;11.67;;
58101;SDS011;52034;51.926;6.320;2022-07-21T05:29:53;15.40;;;11.63;;
58101;SDS011;52034;51.926;6.320;2022-07-21T05:30:54;15.63;;;12.77;;
58101;SDS011;52034;51.926;6.320;2022-07-21T05:31:55;17.47;;;12.60;;
58101;SDS011;52034;51.926;6.320;2022-07-21T05:32:55;15.63;;;13.17;;
58101;SDS011;52034;51.926;6.320;2022-07-21T05:33:55;15.27;;;11.73;;
58101;SDS011;52034;51.926;6.320;2022-07-21T05:34:55;19.13;;;13.67;;
58101;SDS011;52034;51.926;6.320;2022-07-21T05:35:56;18.57;;;13.63;;
58101;SDS011;52034;51.926;6.320;2022-07-21T05:36:56;18.40;;;13.53;;
58101;SDS011;52034;51.926;6.320;2022-07-21T05:37:56;17.50;;;13.97;;
58101;SDS011;52034;51.926;6.320;2022-07-21T05:38:57;17.50;;;13.27;;
58101;SDS011;52034;51.926;6.320;2022-07-21T05:39:57;19.83;;;14.00;;
58101;SDS011;52034;51.926;6.320;2022-07-21T05:40:58;20.03;;;13.43;;
58101;SDS011;52034;51.926;6.320;2022-07-21T05:42:03;20.85;;;13.90;;
58101;SDS011;52034;51.926;6.320;2022-07-21T05:43:03;20.20;;;13.63;;
58101;SDS011;52034;51.926;6.320;2022-07-21T05:44:03;19.13;;;11.47;;
58101;SDS011;52034;51.926;6.320;2022-07-21T05:45:04;19.97;;;13.33;;
58101;SDS011;52034;51.926;6.320;2022-07-21T05:46:04;17.60;;;12.10;;
58101;SDS011;52034;51.926;6.320;2022-07-21T05:47:05;19.13;;;12.70;;
58101;SDS011;52034;51.926;6.320;2022-07-21T05:48:05;17.50;;;13.33;;
58101;SDS011;52034;51.926;6.320;2022-07-21T05:49:05;21.13;;;14.37;;
58101;SDS011;52034;51.926;6.320;2022-07-21T05:50:06;19.63;;;13.73;;
58101;SDS011;52034;51.926;6.320;2022-07-21T05:51:07;17.13;;;13.63;;
58101;SDS011;52034;51.926;6.320;2022-07-21T05:52:07;17.60;;;12.87;;
58101;SDS011;52034;51.926;6.320;2022-07-21T05:53:07;18.27;;;13.87;;
58101;SDS011;52034;51.926;6.320;2022-07-21T05:54:08;21.23;;;14.13;;
58101;SDS011;52034;51.926;6.320;2022-07-21T05:55:08;17.90;;;13.37;;
58101;SDS011;52034;51.926;6.320;2022-07-21T05:56:08;19.60;;;14.53;;
58101;SDS011;52034;51.926;6.320;2022-07-21T05:57:09;18.50;;;13.47;;
58101;SDS011;52034;51.926;6.320;2022-07-21T05:58:09;19.47;;;14.70;;